Time;durP1;ratioP1;P1;durP2;ratioP2;P2;SDS_P1;SDS_P2;PMS_P1;PMS_P2;Temp;Humidity;BMP_temperature;BMP_pressure;BME280_temperature;BME280_humidity;BME280_pressure;Samples;Min_cycle;Max_cycle;Signal;HPM_P1;HPM_P2
2021/07/05 00:00:13;;;;;;;8.43;6.03;;;;;;;20.21;62.15;100694.00;5070751;28;20169;-63
2021/07/05 00:02:40;;;;;;;7.73;5.73;;;;;;;20.34;61.97;100677.50;5090771;28;20185;-63
2021/07/05 00:05:06;;;;;;;8.17;5.97;;;;;;;20.28;61.42;100662.63;5091018;28;20186;-63
2021/07/05 00:07:32;;;;;;;6.93;5.70;;;;;;;19.57;62.47;100622.47;5082177;28;20183;-63
2021/07/05 00:09:58;;;;;;;14.80;6.93;;;;;;;20.06;62.23;100686.91;5089436;28;20196;-63
2021/07/05 00:12:23;;;;;;;9.63;6.23;;;;;;;20.11;62.33;100681.38;5090999;28;20237;-63
2021/07/05 00:14:49;;;;;;;11.27;6.30;;;;;;;20.12;61.96;100668.84;5091123;28;20178;-63
2021/07/05 00:17:15;;;;;;;10.23;6.40;;;;;;;19.50;61.57;100577.94;5090140;28;20197;-63
2021/07/05 00:19:40;;;;;;;10.30;5.83;;;;;;;20.06;62.33;100656.72;5081397;28;20573;-63
2021/07/05 00:22:06;;;;;;;7.93;5.87;;;;;;;20.21;61.78;100676.38;5070477;28;20612;-63
2021/07/05 00:24:32;;;;;;;8.90;5.50;;;;;;;20.25;61.57;100674.88;5073382;28;20644;-63
2021/07/05 00:26:57;;;;;;;6.17;5.30;;;;;;;20.18;61.15;100650.00;5090015;28;20210;-63
2021/07/05 00:29:23;;;;;;;7.63;5.23;;;;;;;20.34;61.28;100668.28;5090924;28;20185;-63
2021/07/05 00:31:49;;;;;;;7.60;6.00;;;;;;;19.76;61.10;100582.28;5091336;28;20241;-63
2021/07/05 00:34:14;;;;;;;6.20;5.50;;;;;;;20.29;60.59;100657.75;5090607;28;20182;-63
2021/07/05 00:36:40;;;;;;;7.17;5.57;;;;;;;20.33;61.38;100655.50;5090498;28;20288;-63
2021/07/05 00:39:06;;;;;;;10.30;6.10;;;;;;;20.36;61.40;100657.31;5088379;28;20189;-63
2021/07/05 00:41:31;;;;;;;7.93;5.63;;;;;;;20.43;61.34;100660.47;5090639;28;20222;-63
2021/07/05 00:43:57;;;;;;;7.23;5.73;;;;;;;20.45;61.28;100669.16;5088994;28;20187;-63
2021/07/05 00:46:24;;;;;;;7.03;5.80;;;;;;;20.51;60.99;100672.00;5090757;28;20167;-63
2021/07/05 00:48:49;;;;;;;9.37;5.80;;;;;;;20.51;60.79;100664.34;5091425;28;20265;-64
2021/07/05 00:51:16;;;;;;;7.60;5.70;;;;;;;20.24;60.96;100625.50;5094627;28;20257;-63
2021/07/05 00:53:47;;;;;;;12.77;6.00;;;;;;;20.54;60.62;100663.34;5094744;28;20175;-63
2021/07/05 00:56:14;;;;;;;9.97;6.13;;;;;;;20.47;60.84;100666.59;5094256;28;20203;-63
2021/07/05 00:58:39;;;;;;;12.93;5.80;;;;;;;20.10;61.06;100611.53;5093909;28;20179;-63
2021/07/05 01:01:05;;;;;;;9.27;6.07;;;;;;;20.49;61.13;100663.31;5086641;28;20191;-62
2021/07/05 01:03:31;;;;;;;8.23;5.57;;;;;;;20.50;60.87;100662.81;5073889;28;20633;-63
2021/07/05 01:05:56;;;;;;;12.03;6.10;;;;;;;20.54;60.71;100660.53;5074015;28;20183;-63
2021/07/05 01:08:22;;;;;;;9.70;6.20;;;;;;;20.16;60.43;100609.56;5082289;28;20194;-63
2021/07/05 01:10:47;;;;;;;9.17;6.30;;;;;;;20.50;60.51;100665.63;5074001;28;20305;-63
2021/07/05 01:13:13;;;;;;;15.43;6.77;;;;;;;20.50;60.44;100662.81;5073863;28;20652;-63
2021/07/05 01:15:38;;;;;;;12.20;6.20;;;;;;;20.50;60.45;100676.09;5074058;28;20180;-63
2021/07/05 01:18:06;;;;;;;7.97;5.30;;;;;;;20.27;60.83;100660.31;5073050;28;20196;-63
2021/07/05 01:20:34;;;;;;;6.73;5.37;;;;;;;20.38;60.59;100672.44;5090015;28;20617;-63
2021/07/05 01:22:59;;;;;;;7.13;5.47;;;;;;;20.37;60.93;100681.38;5093806;28;20183;-63
2021/07/05 01:25:28;;;;;;;7.50;5.70;;;;;;;20.29;60.83;100652.91;5093963;28;20186;-63
2021/07/05 01:27:54;;;;;;;7.93;5.30;;;;;;;20.10;60.57;100659.34;5093379;28;20243;-63
2021/07/05 01:30:21;;;;;;;12.30;6.43;;;;;;;20.02;61.06;100661.03;5094279;28;20595;-63
2021/07/05 01:32:48;;;;;;;12.00;6.00;;;;;;;20.02;61.19;100653.41;5093920;28;20641;-63
2021/07/05 01:35:15;;;;;;;9.77;6.03;;;;;;;20.02;61.27;100658.22;5093839;28;20696;-63
2021/07/05 01:37:41;;;;;;;9.53;5.90;;;;;;;19.76;61.91;100641.31;5093000;28;20271;-63
2021/07/05 01:40:13;;;;;;;13.50;6.87;;;;;;;19.60;62.43;100647.53;5093585;28;20177;-63
2021/07/05 01:42:38;;;;;;;12.13;6.47;;;;;;;19.58;61.89;100647.28;5093423;28;20161;-63
2021/07/05 01:45:05;;;;;;;10.87;6.50;;;;;;;19.53;62.25;100642.34;5093624;28;20267;-63
2021/07/05 01:47:31;;;;;;;9.03;6.23;;;;;;;18.85;62.27;100539.31;5093032;28;20188;-63
2021/07/05 01:49:56;;;;;;;9.07;5.73;;;;;;;19.53;62.40;100641.56;5093291;28;20187;-63
2021/07/05 01:52:22;;;;;;;6.77;5.73;;;;;;;19.53;62.13;100655.63;5093874;28;20179;-63
2021/07/05 01:54:47;;;;;;;8.17;5.50;;;;;;;19.01;61.90;100569.63;5093533;28;20217;-63
2021/07/05 01:57:25;;;;;;;6.37;4.93;;;;;;;18.80;62.10;100574.47;5092605;28;20194;-63
2021/07/05 01:59:53;;;;;;;6.20;5.60;;;;;;;19.18;62.65;100655.66;5091655;28;20575;-63
2021/07/05 02:02:19;;;;;;;14.40;7.10;;;;;;;19.07;63.03;100663.94;5093583;28;20183;-63
2021/07/05 02:04:46;;;;;;;12.00;6.60;;;;;;;19.07;63.60;100655.53;5093202;28;20723;-63
2021/07/05 02:07:11;;;;;;;10.50;6.20;;;;;;;18.95;63.60;100631.38;5092428;28;20183;-63
2021/07/05 02:09:37;;;;;;;6.80;6.07;;;;;;;19.13;63.54;100656.38;5076962;28;20244;-63
2021/07/05 02:12:03;;;;;;;7.37;6.57;;;;;;;19.14;63.85;100682.44;5072744;28;20555;-63
2021/07/05 02:14:28;;;;;;;7.33;5.73;;;;;;;19.10;63.54;100653.78;5092215;28;20563;-63
2021/07/05 02:16:54;;;;;;;11.10;6.20;;;;;;;18.98;63.79;100660.50;5092275;28;20196;-63
2021/07/05 02:19:19;;;;;;;8.90;6.10;;;;;;;18.23;63.96;100562.13;5086704;28;20191;-63
2021/07/05 02:21:45;;;;;;;6.77;5.60;;;;;;;18.83;63.97;100652.09;5072571;28;20219;-63
2021/07/05 02:24:10;;;;;;;7.20;6.20;;;;;;;18.75;64.42;100653.00;5072348;28;20222;-63
2021/07/05 02:26:36;;;;;;;14.40;6.67;;;;;;;18.65;64.63;100643.13;5092882;28;20181;-63
2021/07/05 02:29:01;;;;;;;8.53;6.53;;;;;;;18.59;64.89;100645.88;5092119;28;20180;-63
2021/07/05 02:31:27;;;;;;;9.40;6.77;;;;;;;18.55;64.95;100647.31;5092855;28;20181;-63
2021/07/05 02:33:52;;;;;;;9.57;6.33;;;;;;;17.61;65.05;100513.13;5092743;28;20179;-63
2021/07/05 02:36:18;;;;;;;7.40;6.60;;;;;;;18.41;65.35;100651.69;5092390;28;20198;-62
2021/07/05 02:38:43;;;;;;;10.13;7.10;;;;;;;18.47;65.31;100651.78;5091821;28;20183;-63
2021/07/05 02:41:09;;;;;;;12.30;6.70;;;;;;;18.11;65.34;100601.69;5091245;28;20185;-63
2021/07/05 02:43:35;;;;;;;9.83;6.10;;;;;;;18.41;65.04;100646.09;5092354;28;20179;-63
2021/07/05 02:46:01;;;;;;;8.97;6.10;;;;;;;18.44;64.73;100631.09;5092386;28;20666;-63
2021/07/05 02:48:30;;;;;;;10.70;7.60;;;;;;;18.60;64.89;100655.84;5091643;28;20178;-63
2021/07/05 02:51:02;;;;;;;11.03;6.37;;;;;;;18.16;64.69;100598.19;5092282;28;20675;-63
2021/07/05 02:53:27;;;;;;;8.43;6.20;;;;;;;18.24;64.79;100609.28;5092530;28;20640;-62
2021/07/05 02:55:53;;;;;;;7.97;6.37;;;;;;;17.96;64.75;100579.22;5087267;28;20179;-62
2021/07/05 02:58:20;;;;;;;7.87;6.03;;;;;;;18.68;64.66;100659.03;5071262;28;20183;-63
2021/07/05 03:00:47;;;;;;;7.53;6.77;;;;;;;18.72;64.48;100663.16;5071947;28;20722;-63
2021/07/05 03:03:14;;;;;;;10.03;6.60;;;;;;;18.67;64.67;100649.06;5071635;28;20635;-63
2021/07/05 03:05:40;;;;;;;18.27;6.90;;;;;;;18.56;64.23;100632.03;5071898;28;20266;-63
2021/07/05 03:08:07;;;;;;;11.30;6.77;;;;;;;18.66;64.62;100681.16;5079684;28;20263;-63
2021/07/05 03:10:36;;;;;;;9.13;6.77;;;;;;;18.68;64.66;100668.19;5071858;28;20173;-62
2021/07/05 03:13:08;;;;;;;9.77;6.43;;;;;;;18.74;64.76;100669.06;5077815;28;20198;-62
2021/07/05 03:15:35;;;;;;;9.83;6.23;;;;;;;18.76;64.82;100677.00;5092001;28;20223;-63
2021/07/05 03:18:02;;;;;;;8.13;6.17;;;;;;;18.79;64.91;100676.78;5091204;28;20343;-63
2021/07/05 03:20:31;;;;;;;8.37;5.93;;;;;;;18.85;64.63;100679.69;5091541;28;20300;-63
2021/07/05 03:22:58;;;;;;;9.20;5.80;;;;;;;18.35;64.60;100614.34;5091538;28;20201;-62
2021/07/05 03:25:26;;;;;;;7.10;5.90;;;;;;;18.42;64.06;100601.97;5091725;28;20647;-62
2021/07/05 03:27:52;;;;;;;8.33;6.53;;;;;;;19.00;63.89;100680.44;5091118;28;20604;-62
2021/07/05 03:30:19;;;;;;;7.47;5.53;;;;;;;18.98;64.01;100675.28;5091519;28;20182;-62
2021/07/05 03:32:46;;;;;;;6.47;5.40;;;;;;;18.84;64.64;100675.34;5091504;28;20199;-62
2021/07/05 03:35:12;;;;;;;7.60;5.67;;;;;;;18.17;65.61;100616.56;5091262;28;20187;-62
2021/07/05 03:37:39;;;;;;;9.80;5.87;;;;;;;18.42;66.37;100666.50;5090431;28;20217;-62
2021/07/05 03:40:07;;;;;;;9.23;5.83;;;;;;;17.98;65.98;100590.75;5091285;28;20177;-62
2021/07/05 03:42:33;;;;;;;10.07;6.23;;;;;;;18.62;65.85;100669.38;5091228;28;20666;-63
2021/07/05 03:44:59;;;;;;;8.57;6.27;;;;;;;18.61;65.42;100667.81;5089391;28;20271;-62
2021/07/05 03:47:24;;;;;;;13.00;5.83;;;;;;;18.74;65.31;100668.28;5090464;28;20570;-62
2021/07/05 03:49:50;;;;;;;10.23;6.40;;;;;;;18.86;65.59;100667.97;5091067;28;20195;-62
2021/07/05 03:52:16;;;;;;;10.57;7.43;;;;;;;18.82;65.17;100647.75;5090952;28;20222;-62
2021/07/05 03:54:42;;;;;;;11.93;6.93;;;;;;;19.05;65.07;100658.06;5091072;28;20180;-63
2021/07/05 03:57:21;;;;;;;7.57;6.13;;;;;;;19.14;65.04;100668.38;5090243;28;20290;-63
2021/07/05 03:59:50;;;;;;;10.23;5.83;;;;;;;19.26;64.58;100659.66;5091274;28;20597;-62
2021/07/05 04:02:17;;;;;;;11.27;6.27;;;;;;;18.93;63.95;100599.41;5090817;28;20197;-63
2021/07/05 04:04:42;;;;;;;10.03;6.23;;;;;;;19.40;63.67;100660.84;5090825;28;20176;-63
2021/07/05 04:07:07;;;;;;;7.67;6.07;;;;;;;19.48;63.47;100659.13;5090112;28;20571;-63
2021/07/05 04:09:33;;;;;;;3.80;3.40;;;;;;;21.37;75.15;100656.22;5075675;28;20210;-63
2021/07/05 04:11:59;;;;;;;6.13;3.90;;;;;;;23.51;66.23;100652.00;5070753;28;20188;-63
2021/07/05 04:14:24;;;;;;;5.53;4.30;;;;;;;24.43;60.14;100651.97;5079277;28;20182;-61
2021/07/05 04:16:50;;;;;;;5.07;4.17;;;;;;;24.55;58.19;100659.84;5084612;28;20194;-62
2021/07/05 04:19:15;;;;;;;6.13;4.40;;;;;;;24.87;56.71;100654.44;5091570;28;20175;-59
2021/07/05 04:21:41;;;;;;;6.70;5.20;;;;;;;24.78;56.21;100658.38;5090394;28;20239;-60
2021/07/05 04:24:06;;;;;;;7.87;4.50;;;;;;;24.40;54.46;100537.66;5089567;28;20191;-61
2021/07/05 04:26:32;;;;;;;11.13;4.90;;;;;;;25.73;52.60;100653.19;5091949;28;20183;-63
2021/07/05 04:28:57;;;;;;;7.53;4.80;;;;;;;26.03;49.86;100634.75;5091589;28;20768;-62
2021/07/05 04:31:22;;;;;;;5.60;4.20;;;;;;;26.36;49.00;100664.72;5089905;28;20182;-64
2021/07/05 04:33:48;;;;;;;10.43;4.83;;;;;;;26.41;48.67;100672.38;5091041;28;20178;-65
2021/07/05 04:36:14;;;;;;;8.17;6.07;;;;;;;26.39;47.54;100667.22;5090908;28;20223;-68
2021/07/05 04:38:40;;;;;;;7.97;6.00;;;;;;;26.27;47.99;100660.19;5090155;28;20186;-65
2021/07/05 04:41:05;;;;;;;8.20;6.30;;;;;;;25.93;48.46;100627.13;5090767;28;20171;-63
2021/07/05 04:43:31;;;;;;;9.93;6.30;;;;;;;26.13;49.27;100664.28;5090834;28;20186;-62
2021/07/05 04:46:02;;;;;;;9.10;7.50;;;;;;;26.01;49.08;100659.31;5090093;28;20185;-61
2021/07/05 04:48:28;;;;;;;11.93;7.60;;;;;;;25.60;51.32;100607.72;5092013;28;20166;-65
2021/07/05 04:50:54;;;;;;;9.97;6.83;;;;;;;26.26;50.10;100661.47;5089134;28;20199;-65
2021/07/05 04:53:19;;;;;;;11.93;8.23;;;;;;;26.34;49.14;100662.41;5080309;28;20221;-66
2021/07/05 04:55:45;;;;;;;10.87;8.20;;;;;;;26.16;48.50;100659.59;5089726;28;20218;-65
2021/07/05 04:58:11;;;;;;;10.50;7.87;;;;;;;26.07;48.43;100666.44;5073205;28;20257;-65
2021/07/05 05:00:36;;;;;;;11.83;7.87;;;;;;;26.23;48.03;100673.16;5086786;28;20222;-66
2021/07/05 05:03:04;;;;;;;10.80;8.00;;;;;;;26.16;47.92;100680.22;5084014;28;20685;-66
2021/07/05 05:05:32;;;;;;;12.27;8.47;;;;;;;26.63;46.37;100681.34;5070626;28;20215;-65
2021/07/05 05:07:58;;;;;;;11.90;7.43;;;;;;;26.11;47.41;100681.06;5080429;28;20175;-66
2021/07/05 05:10:24;;;;;;;9.03;6.60;;;;;;;26.50;47.06;100691.84;5079719;28;20183;-65
2021/07/05 05:12:51;;;;;;;8.53;6.60;;;;;;;25.68;46.64;100605.78;5075820;28;20202;-65
2021/07/05 05:15:18;;;;;;;8.27;6.43;;;;;;;26.10;47.53;100675.97;5079325;28;20596;-65
2021/07/05 05:17:45;;;;;;;7.70;6.63;;;;;;;26.00;46.96;100674.81;5075487;28;20210;-65
2021/07/05 05:20:11;;;;;;;10.20;7.90;;;;;;;26.12;47.18;100674.13;5079192;28;20229;-65
2021/07/05 05:22:38;;;;;;;7.50;6.37;;;;;;;26.34;47.10;100681.50;5079808;28;20632;-65
2021/07/05 05:25:06;;;;;;;7.83;5.93;;;;;;;26.27;46.99;100679.31;5082129;28;20183;-65
2021/07/05 05:27:31;;;;;;;8.13;6.30;;;;;;;26.66;46.12;100685.19;5076458;28;20183;-65
2021/07/05 05:29:57;;;;;;;7.57;5.57;;;;;;;26.53;46.27;100688.72;5075416;28;20722;-65
2021/07/05 05:32:23;;;;;;;7.67;5.73;;;;;;;26.01;46.85;100608.97;5084960;28;20207;-65
2021/07/05 05:34:48;;;;;;;7.17;5.13;;;;;;;26.46;46.10;100691.41;5072745;28;20224;-65
2021/07/05 05:37:14;;;;;;;7.87;4.97;;;;;;;26.17;47.19;100667.59;5080372;28;20199;-63
2021/07/05 05:39:39;;;;;;;7.17;5.17;;;;;;;26.46;45.99;100674.38;5076883;28;20211;-64
2021/07/05 05:42:05;;;;;;;6.03;4.97;;;;;;;26.00;47.12;100689.75;5076486;28;20218;-64
2021/07/05 05:44:33;;;;;;;7.20;4.63;;;;;;;26.01;47.83;100679.19;5079854;28;20645;-64
2021/07/05 05:46:59;;;;;;;7.70;4.80;;;;;;;26.15;47.12;100678.69;5070927;28;20583;-64
2021/07/05 05:49:24;;;;;;;6.57;4.60;;;;;;;26.44;46.71;100682.66;5078380;28;20511;-64
2021/07/05 05:51:50;;;;;;;7.43;4.60;;;;;;;26.51;46.35;100684.88;5082705;28;20183;-63
2021/07/05 05:54:16;;;;;;;9.57;4.40;;;;;;;26.46;46.34;100680.06;5078656;28;20182;-63
2021/07/05 05:56:42;;;;;;;6.20;5.00;;;;;;;25.81;45.67;100580.31;5089024;28;20544;-63
2021/07/05 05:59:10;;;;;;;5.77;4.50;;;;;;;26.37;45.82;100678.38;5086982;28;20207;-63
2021/07/05 06:01:38;;;;;;;5.10;4.47;;;;;;;26.58;45.84;100687.88;5084579;28;20593;-64
2021/07/05 06:04:04;;;;;;;5.53;3.97;;;;;;;26.01;45.60;100583.41;5081679;28;20198;-63
2021/07/05 06:06:30;;;;;;;6.87;5.03;;;;;;;26.03;44.41;100571.50;5083544;28;20236;-63
2021/07/05 06:08:56;;;;;;;8.37;4.50;;;;;;;26.39;44.69;100655.88;5081506;28;20187;-66
2021/07/05 06:11:21;;;;;;;6.30;4.30;;;;;;;26.51;45.02;100668.56;5078695;28;20672;-63
2021/07/05 06:13:48;;;;;;;7.20;4.63;;;;;;;26.63;45.22;100672.81;5086683;28;20251;-63
2021/07/05 06:16:14;;;;;;;6.57;4.50;;;;;;;26.91;44.62;100667.41;5081345;28;20183;-63
2021/07/05 06:18:39;;;;;;;6.07;4.90;;;;;;;26.82;44.56;100661.38;5080670;28;20190;-63
2021/07/05 06:21:05;;;;;;;5.20;4.40;;;;;;;27.00;44.32;100671.91;5085744;28;20611;-66
2021/07/05 06:23:31;;;;;;;5.93;4.30;;;;;;;26.95;44.71;100662.16;5085829;28;20186;-63
2021/07/05 06:25:59;;;;;;;9.00;4.87;;;;;;;27.07;43.91;100663.47;5077662;28;20183;-63
2021/07/05 06:28:29;;;;;;;6.80;4.97;;;;;;;26.60;45.01;100627.63;5088442;28;20191;-63
2021/07/05 06:30:55;;;;;;;7.73;5.07;;;;;;;26.42;46.35;100671.84;5078614;28;20194;-63
2021/07/05 06:33:21;;;;;;;8.07;5.27;;;;;;;25.41;46.74;100565.16;5081775;28;20174;-63
2021/07/05 06:35:48;;;;;;;9.57;4.60;;;;;;;26.36;46.74;100662.63;5076080;28;20179;-63
2021/07/05 06:38:16;;;;;;;6.47;5.13;;;;;;;26.44;46.54;100674.91;5082247;28;20208;-65
2021/07/05 06:40:43;;;;;;;6.93;4.90;;;;;;;26.59;46.16;100655.31;5079066;28;20182;-65
2021/07/05 06:43:09;;;;;;;7.50;5.10;;;;;;;26.94;45.16;100668.38;5104277;28;20195;-63
2021/07/05 06:45:36;;;;;;;7.00;5.33;;;;;;;26.91;45.30;100664.56;5084887;28;20175;-64
2021/07/05 06:48:01;;;;;;;7.43;5.40;;;;;;;27.21;44.75;100659.38;5082614;28;20227;-63
2021/07/05 06:50:27;;;;;;;6.03;4.83;;;;;;;27.44;44.57;100657.59;5079583;28;20190;-63
2021/07/05 06:52:54;;;;;;;6.60;4.80;;;;;;;27.58;44.63;100659.13;5081276;28;20187;-64
2021/07/05 06:55:20;;;;;;;6.90;5.30;;;;;;;27.57;44.00;100614.91;5084325;28;20708;-63
2021/07/05 06:57:45;;;;;;;6.83;4.93;;;;;;;27.88;43.93;100639.59;5074246;28;20286;-63
2021/07/05 07:00:15;;;;;;;7.50;4.80;;;;;;;27.96;43.69;100646.16;5077777;28;20175;-66
2021/07/05 07:02:42;;;;;;;6.80;5.17;;;;;;;28.06;43.78;100660.69;5073635;28;20232;-65
2021/07/05 07:05:10;;;;;;;9.13;5.57;;;;;;;28.16;43.71;100636.88;5079896;28;20217;-63
2021/07/05 07:07:37;;;;;;;8.90;5.57;;;;;;;28.20;43.32;100625.88;5080084;28;20283;-64
2021/07/05 07:10:04;;;;;;;7.17;4.60;;;;;;;27.98;44.11;100632.13;5084986;28;20230;-64
2021/07/05 07:12:30;;;;;;;9.80;5.53;;;;;;;27.85;43.66;100628.56;5075489;28;20187;-63
2021/07/05 07:14:55;;;;;;;8.57;5.63;;;;;;;27.82;43.26;100638.97;5081265;28;20184;-64
2021/07/05 07:17:27;;;;;;;7.93;5.97;;;;;;;27.72;44.42;100600.84;5079003;28;20204;-64
2021/07/05 07:19:53;;;;;;;7.33;5.40;;;;;;;27.62;44.48;100562.78;5083719;28;20234;-64
2021/07/05 07:22:19;;;;;;;7.10;5.77;;;;;;;27.87;44.14;100588.88;5085824;28;20604;-63
2021/07/05 07:24:45;;;;;;;7.77;5.50;;;;;;;28.26;43.53;100623.66;5081806;28;20565;-63
2021/07/05 07:27:10;;;;;;;7.50;5.60;;;;;;;28.42;43.44;100630.31;5084039;28;20185;-64
2021/07/05 07:29:36;;;;;;;8.83;5.80;;;;;;;28.45;43.70;100632.06;5075448;28;20183;-64
2021/07/05 07:32:02;;;;;;;7.70;5.32;;;;;;;28.47;43.27;100630.19;5081638;28;20267;-64
2021/07/05 07:34:27;;;;;;;8.50;5.95;;;;;;;28.41;43.17;100629.53;5078709;28;20729;-66
2021/07/05 07:36:57;;;;;;;6.63;4.90;;;;;;;28.56;43.67;100635.38;5082698;28;20229;-63
2021/07/05 07:39:28;;;;;;;6.95;5.63;;;;;;;28.62;42.87;100618.16;5084833;28;20189;-63
2021/07/05 07:41:54;;;;;;;6.60;5.27;;;;;;;28.76;42.37;100634.59;5079173;28;20194;-64
2021/07/05 07:44:19;;;;;;;7.63;5.88;;;;;;;27.94;43.04;100532.00;5082467;28;20211;-63
2021/07/05 07:46:45;;;;;;;9.60;5.90;;;;;;;28.82;43.03;100640.19;5086901;28;20237;-63
2021/07/05 07:49:10;;;;;;;8.60;5.57;;;;;;;28.93;42.78;100628.47;5084418;28;20175;-63
2021/07/05 07:51:36;;;;;;;6.80;5.40;;;;;;;28.98;42.55;100631.22;5081732;28;20604;-63
2021/07/05 07:54:01;;;;;;;7.15;5.80;;;;;;;29.09;42.42;100636.59;5077197;28;20789;-63
2021/07/05 07:56:30;;;;;;;7.88;5.60;;;;;;;29.23;42.47;100637.25;5081839;28;20626;-64
2021/07/05 07:58:55;;;;;;;8.05;6.03;;;;;;;29.20;42.19;100635.50;5073827;28;20190;-63
2021/07/05 08:01:21;;;;;;;9.95;5.32;;;;;;;29.26;42.16;100628.31;5070637;28;20192;-64
2021/07/05 08:03:46;;;;;;;8.30;5.53;;;;;;;29.25;41.97;100617.47;5058677;28;20555;-65
2021/07/05 08:06:12;;;;;;;5.65;4.95;;;;;;;29.29;41.79;100609.31;5073630;28;20182;-66
2021/07/05 08:08:37;;;;;;;6.05;4.88;;;;;;;29.35;41.88;100615.63;5070674;28;20192;-67
2021/07/05 08:11:03;;;;;;;6.65;5.63;;;;;;;29.37;41.75;100610.13;5073541;28;20683;-65
2021/07/05 08:13:29;;;;;;;6.82;4.70;;;;;;;29.49;41.84;100622.75;5077216;28;20187;-64
2021/07/05 08:15:54;;;;;;;9.68;5.78;;;;;;;29.35;40.91;100589.94;5075647;28;20191;-66
2021/07/05 08:18:20;;;;;;;7.30;5.45;;;;;;;29.66;41.33;100623.03;5069682;28;20659;-66
2021/07/05 08:20:46;;;;;;;6.65;5.47;;;;;;;29.83;40.70;100624.06;5084954;28;20238;-66
2021/07/05 08:23:12;;;;;;;7.22;5.40;;;;;;;29.90;41.12;100619.69;5080364;28;20235;-66
2021/07/05 08:25:38;;;;;;;6.32;5.15;;;;;;;29.43;40.32;100534.41;5072997;28;20682;-64
2021/07/05 08:28:03;;;;;;;6.65;5.05;;;;;;;29.54;40.19;100533.31;5076673;28;20187;-63
2021/07/05 08:30:29;;;;;;;6.38;5.00;;;;;;;29.53;40.39;100538.22;5078541;28;20628;-63
2021/07/05 08:32:54;;;;;;;6.45;5.10;;;;;;;30.10;39.55;100593.81;5071182;28;20555;-64
2021/07/05 08:35:21;;;;;;;5.38;4.88;;;;;;;30.28;39.92;100615.63;5076495;28;20209;-64
2021/07/05 08:37:48;;;;;;;6.18;5.20;;;;;;;30.06;39.60;100562.03;5077664;28;20644;-66
2021/07/05 08:40:15;;;;;;;7.32;4.97;;;;;;;30.42;38.96;100607.63;5103609;28;20205;-65
2021/07/05 08:42:42;;;;;;;6.85;5.03;;;;;;;30.21;39.14;100604.94;5082819;28;20190;-66
2021/07/05 08:45:08;;;;;;;7.80;5.00;;;;;;;30.05;39.62;100597.63;5084845;28;20301;-64
2021/07/05 08:47:37;;;;;;;6.10;4.95;;;;;;;29.76;40.45;100584.81;5078840;28;20175;-65
2021/07/05 08:50:07;;;;;;;11.85;5.50;;;;;;;29.69;39.90;100607.63;5079987;28;20187;-64
2021/07/05 08:52:42;;;;;;;9.18;5.10;;;;;;;29.59;39.81;100604.53;5081152;28;20641;-65
2021/07/05 08:55:08;;;;;;;9.10;5.10;;;;;;;29.29;39.45;100518.75;5075872;28;20610;-64
2021/07/05 08:57:38;;;;;;;6.95;5.15;;;;;;;30.00;40.54;100597.81;5082479;28;20207;-65
2021/07/05 09:00:19;;;;;;;7.13;4.82;;;;;;;30.24;38.23;100595.22;5082416;28;20210;-65
2021/07/05 09:02:45;;;;;;;6.55;4.75;;;;;;;30.14;38.39;100584.94;5082577;28;20256;-65
2021/07/05 09:05:11;;;;;;;5.28;4.43;;;;;;;30.33;38.83;100593.88;5072809;28;20291;-67
2021/07/05 09:08:02;;;;;;;7.28;4.60;;;;;;;30.51;39.18;100584.19;5075680;28;20187;-68
2021/07/05 09:10:38;;;;;;;6.90;4.80;;;;;;;30.85;38.69;100579.59;5083557;28;20175;-68
2021/07/05 09:13:08;;;;;;;5.20;4.50;;;;;;;31.10;37.75;100583.38;5078409;28;20671;-68
2021/07/05 09:15:40;;;;;;;9.77;4.53;;;;;;;30.78;37.18;100511.72;5076843;28;20289;-68
2021/07/05 09:18:27;;;;;;;5.45;4.30;;;;;;;30.73;36.26;100506.97;5083840;28;20299;-68
2021/07/05 09:20:57;;;;;;;6.30;4.25;;;;;;;30.59;34.95;100519.16;5086914;28;20237;-68
2021/07/05 09:23:23;;;;;;;5.70;4.00;;;;;;;30.53;34.60;100487.91;5077338;28;20180;-68
2021/07/05 09:25:52;;;;;;;6.25;4.30;;;;;;;31.28;36.17;100579.31;5080833;28;20188;-68
2021/07/05 09:28:21;;;;;;;6.65;4.25;;;;;;;31.42;36.72;100579.88;5088425;28;20214;-68
2021/07/05 09:30:49;;;;;;;4.85;4.35;;;;;;;31.46;35.00;100583.09;5078655;28;20186;-68
2021/07/05 09:33:18;;;;;;;6.18;4.70;;;;;;;31.70;34.61;100580.31;5083447;28;20702;-67
2021/07/05 09:35:44;;;;;;;5.78;4.13;;;;;;;31.73;34.04;100572.66;5080304;28;20641;-68
2021/07/05 09:38:10;;;;;;;7.78;4.38;;;;;;;31.65;34.54;100531.81;5080884;28;20290;-68
2021/07/05 09:40:36;;;;;;;6.38;4.10;;;;;;;32.01;33.88;100561.63;5080190;28;20501;-68
2021/07/05 09:43:01;;;;;;;7.28;4.43;;;;;;;32.02;33.10;100565.25;5086287;28;20198;-68
2021/07/05 09:45:33;;;;;;;6.88;4.15;;;;;;;31.93;32.80;100535.09;5081842;28;20684;-68
2021/07/05 09:48:11;;;;;;;5.93;3.72;;;;;;;32.14;33.20;100552.72;5078502;28;20171;-68
2021/07/05 09:50:37;;;;;;;8.32;3.88;;;;;;;32.30;33.57;100550.56;5085731;28;20652;-68
2021/07/05 09:53:25;;;;;;;6.90;4.18;;;;;;;32.38;33.21;100549.13;5080958;28;20178;-68
2021/07/05 09:55:51;;;;;;;5.43;4.15;;;;;;;32.55;32.39;100548.41;5076845;28;20664;-68
2021/07/05 09:58:30;;;;;;;5.40;4.30;;;;;;;32.02;33.14;100482.88;5083658;28;20199;-68
2021/07/05 10:00:55;;;;;;;6.72;4.07;;;;;;;32.31;33.32;100546.34;5077562;28;20178;-68
2021/07/05 10:03:34;;;;;;;6.85;4.00;;;;;;;32.30;32.36;100541.94;5083878;28;20179;-68
2021/07/05 10:06:18;;;;;;;5.85;3.78;;;;;;;32.06;33.00;100482.47;5077401;28;20175;-68
2021/07/05 10:08:46;;;;;;;4.78;3.85;;;;;;;32.24;33.06;100513.47;5083888;28;20738;-68
2021/07/05 10:11:11;;;;;;;7.75;3.65;;;;;;;32.52;31.91;100532.38;5077315;28;20222;-68
2021/07/05 10:13:37;;;;;;;4.82;3.63;;;;;;;32.57;32.08;100526.41;5074534;28;20211;-68
2021/07/05 10:16:07;;;;;;;4.70;4.00;;;;;;;32.58;33.14;100522.19;5077627;28;20187;-68
2021/07/05 10:18:33;;;;;;;3.92;3.58;;;;;;;32.50;31.25;100521.47;5072925;28;20208;-68
2021/07/05 10:20:58;;;;;;;4.25;3.80;;;;;;;32.64;31.25;100519.06;5080726;28;20231;-68
2021/07/05 10:23:24;;;;;;;5.32;3.78;;;;;;;32.22;32.17;100469.53;5071396;28;20172;-68
2021/07/05 10:25:50;;;;;;;4.55;3.65;;;;;;;32.63;31.46;100518.31;5083441;28;20187;-68
2021/07/05 10:28:17;;;;;;;6.80;4.00;;;;;;;32.74;30.95;100503.47;5077452;28;20282;-69
2021/07/05 10:30:44;;;;;;;5.03;4.03;;;;;;;32.88;31.17;100501.03;5076110;28;20310;-69
2021/07/05 10:33:11;;;;;;;5.57;3.70;;;;;;;32.85;31.42;100465.66;5084235;28;20195;-69
2021/07/05 10:35:38;;;;;;;4.93;3.80;;;;;;;33.23;31.28;100509.06;5061915;28;20184;-68
2021/07/05 10:38:11;;;;;;;4.78;4.03;;;;;;;32.77;31.29;100424.84;5102355;28;20591;-68
2021/07/05 10:40:49;;;;;;;4.63;3.15;;;;;;;33.37;30.41;100501.59;5079366;28;20175;-68
2021/07/05 10:43:18;;;;;;;4.35;3.67;;;;;;;33.26;29.85;100507.84;5078539;28;20187;-68
2021/07/05 10:45:45;;;;;;;4.40;3.92;;;;;;;33.48;29.94;100500.31;5083609;28;20274;-68
2021/07/05 10:48:14;;;;;;;4.90;3.60;;;;;;;33.70;29.50;100500.00;5079474;28;20652;-68
2021/07/05 10:50:41;;;;;;;7.97;6.57;;;;;;;33.79;29.66;100505.06;5083046;28;20215;-68
2021/07/05 10:53:08;;;;;;;6.55;3.63;;;;;;;33.93;30.57;100488.94;5070532;28;20604;-68
2021/07/05 10:55:46;;;;;;;3.55;3.20;;;;;;;33.88;30.04;100495.72;5082445;28;20667;-68
2021/07/05 10:58:21;;;;;;;5.00;3.33;;;;;;;33.95;30.22;100494.09;5072849;28;20208;-66
2021/07/05 11:00:53;;;;;;;4.82;3.50;;;;;;;33.61;29.82;100405.88;5080709;28;20213;-68
2021/07/05 11:03:40;;;;;;;4.72;3.60;;;;;;;34.11;30.40;100486.72;5067686;28;20171;-67
2021/07/05 11:06:29;;;;;;;5.25;3.25;;;;;;;33.88;30.76;100486.34;5080743;28;20190;-68
2021/07/05 11:08:56;;;;;;;4.63;3.30;;;;;;;33.18;29.01;100423.94;5074638;28;20203;-67
2021/07/05 11:11:29;;;;;;;4.90;3.28;;;;;;;33.62;30.19;100487.84;5070216;28;20670;-68
2021/07/05 11:14:12;;;;;;;3.53;2.92;;;;;;;33.87;28.50;100488.47;5063276;28;20187;-68
2021/07/05 11:17:16;;;;;;;4.88;3.17;;;;;;;33.81;29.06;100490.09;5077852;28;20206;-68
2021/07/05 11:19:50;;;;;;;3.30;3.00;;;;;;;33.71;28.23;100446.91;5071298;28;20199;-68
2021/07/05 11:22:27;;;;;;;3.28;2.92;;;;;;;34.04;26.00;100479.00;5073613;28;20183;-68
2021/07/05 11:25:18;;;;;;;4.45;2.90;;;;;;;34.01;26.30;100474.44;5075662;28;20261;-68